sensor_id;sensor_type;location;lat;lon;timestamp;P1;durP1;ratioP1;P2;durP2;ratioP2
70477;SDS011;57956;53.362;-1.518;2022-12-07T00:01:21;1.38;;;0.30;;
70477;SDS011;57956;53.362;-1.518;2022-12-07T00:03:48;0.77;;;0.20;;
70477;SDS011;57956;53.362;-1.518;2022-12-07T00:06:14;0.80;;;0.10;;
70477;SDS011;57956;53.362;-1.518;2022-12-07T00:08:40;1.60;;;0.30;;
70477;SDS011;57956;53.362;-1.518;2022-12-07T00:11:06;0.70;;;0.10;;
70477;SDS011;57956;53.362;-1.518;2022-12-07T00:13:32;1.20;;;0.20;;
70477;SDS011;57956;53.362;-1.518;2022-12-07T00:16:31;1.48;;;0.20;;
70477;SDS011;57956;53.362;-1.518;2022-12-07T00:18:49;0.85;;;0.13;;
70477;SDS011;57956;53.362;-1.518;2022-12-07T00:21:16;2.53;;;0.40;;
70477;SDS011;57956;53.362;-1.518;2022-12-07T00:23:42;0.75;;;0.10;;
70477;SDS011;57956;53.362;-1.518;2022-12-07T00:26:14;0.95;;;0.20;;
70477;SDS011;57956;53.362;-1.518;2022-12-07T00:28:39;1.23;;;0.28;;
70477;SDS011;57956;53.362;-1.518;2022-12-07T00:31:07;0.90;;;0.20;;
70477;SDS011;57956;53.362;-1.518;2022-12-07T00:33:33;0.70;;;0.10;;
70477;SDS011;57956;53.362;-1.518;2022-12-07T00:35:59;1.20;;;0.20;;
70477;SDS011;57956;53.362;-1.518;2022-12-07T00:38:24;1.00;;;0.20;;
70477;SDS011;57956;53.362;-1.518;2022-12-07T00:40:56;1.05;;;0.20;;
70477;SDS011;57956;53.362;-1.518;2022-12-07T00:43:21;0.93;;;0.32;;
70477;SDS011;57956;53.362;-1.518;2022-12-07T00:45:47;0.80;;;0.10;;
70477;SDS011;57956;53.362;-1.518;2022-12-07T00:48:12;1.73;;;0.77;;
70477;SDS011;57956;53.362;-1.518;2022-12-07T00:50:37;0.90;;;0.17;;
70477;SDS011;57956;53.362;-1.518;2022-12-07T00:53:02;1.97;;;0.20;;
70477;SDS011;57956;53.362;-1.518;2022-12-07T00:55:28;0.70;;;0.10;;
70477;SDS011;57956;53.362;-1.518;2022-12-07T00:57:53;1.13;;;0.30;;
70477;SDS011;57956;53.362;-1.518;2022-12-07T01:00:18;0.60;;;0.10;;
70477;SDS011;57956;53.362;-1.518;2022-12-07T01:02:43;0.90;;;0.23;;
70477;SDS011;57956;53.362;-1.518;2022-12-07T01:05:09;1.57;;;0.20;;
70477;SDS011;57956;53.362;-1.518;2022-12-07T01:07:34;0.70;;;0.10;;
70477;SDS011;57956;53.362;-1.518;2022-12-07T01:09:59;1.47;;;0.33;;
70477;SDS011;57956;53.362;-1.518;2022-12-07T01:12:25;0.70;;;0.00;;
70477;SDS011;57956;53.362;-1.518;2022-12-07T01:14:53;0.70;;;0.10;;
70477;SDS011;57956;53.362;-1.518;2022-12-07T01:17:18;0.70;;;0.10;;
70477;SDS011;57956;53.362;-1.518;2022-12-07T01:19:43;0.93;;;0.13;;
70477;SDS011;57956;53.362;-1.518;2022-12-07T01:22:09;1.05;;;0.10;;
70477;SDS011;57956;53.362;-1.518;2022-12-07T01:24:34;0.80;;;0.10;;
70477;SDS011;57956;53.362;-1.518;2022-12-07T01:26:59;0.90;;;0.10;;
70477;SDS011;57956;53.362;-1.518;2022-12-07T01:29:25;1.53;;;0.20;;
70477;SDS011;57956;53.362;-1.518;2022-12-07T01:31:50;0.60;;;0.10;;
70477;SDS011;57956;53.362;-1.518;2022-12-07T01:34:15;0.90;;;0.20;;
70477;SDS011;57956;53.362;-1.518;2022-12-07T01:36:40;8.63;;;0.80;;
70477;SDS011;57956;53.362;-1.518;2022-12-07T01:39:06;0.50;;;0.00;;
70477;SDS011;57956;53.362;-1.518;2022-12-07T01:41:33;0.60;;;0.10;;
70477;SDS011;57956;53.362;-1.518;2022-12-07T01:46:32;0.98;;;0.20;;
70477;SDS011;57956;53.362;-1.518;2022-12-07T01:48:58;0.77;;;0.10;;
70477;SDS011;57956;53.362;-1.518;2022-12-07T01:51:23;0.90;;;0.10;;
70477;SDS011;57956;53.362;-1.518;2022-12-07T01:53:49;1.17;;;0.20;;
70477;SDS011;57956;53.362;-1.518;2022-12-07T01:56:16;0.73;;;0.10;;
70477;SDS011;57956;53.362;-1.518;2022-12-07T01:58:42;7.50;;;0.47;;
70477;SDS011;57956;53.362;-1.518;2022-12-07T02:01:08;0.70;;;0.10;;
70477;SDS011;57956;53.362;-1.518;2022-12-07T02:03:43;1.07;;;0.13;;
70477;SDS011;57956;53.362;-1.518;2022-12-07T02:06:10;2.35;;;0.20;;
70477;SDS011;57956;53.362;-1.518;2022-12-07T02:08:36;0.98;;;0.20;;
70477;SDS011;57956;53.362;-1.518;2022-12-07T02:11:02;0.90;;;0.10;;
70477;SDS011;57956;53.362;-1.518;2022-12-07T02:13:29;0.60;;;0.10;;
70477;SDS011;57956;53.362;-1.518;2022-12-07T02:23:52;0.80;;;0.10;;
70477;SDS011;57956;53.362;-1.518;2022-12-07T02:37:42;6.75;;;0.50;;
70477;SDS011;57956;53.362;-1.518;2022-12-07T02:40:10;0.60;;;0.10;;
70477;SDS011;57956;53.362;-1.518;2022-12-07T02:42:39;0.60;;;0.10;;
70477;SDS011;57956;53.362;-1.518;2022-12-07T02:45:05;0.63;;;0.10;;
70477;SDS011;57956;53.362;-1.518;2022-12-07T02:47:32;0.60;;;0.10;;
70477;SDS011;57956;53.362;-1.518;2022-12-07T02:49:59;1.80;;;0.30;;
70477;SDS011;57956;53.362;-1.518;2022-12-07T02:52:24;0.70;;;0.10;;
70477;SDS011;57956;53.362;-1.518;2022-12-07T02:54:49;0.60;;;0.10;;
70477;SDS011;57956;53.362;-1.518;2022-12-07T03:04:52;0.95;;;0.40;;
70477;SDS011;57956;53.362;-1.518;2022-12-07T03:09:45;0.60;;;0.10;;
70477;SDS011;57956;53.362;-1.518;2022-12-07T03:12:16;1.77;;;0.37;;
70477;SDS011;57956;53.362;-1.518;2022-12-07T03:14:48;0.60;;;0.10;;
70477;SDS011;57956;53.362;-1.518;2022-12-07T03:17:18;0.80;;;0.10;;
70477;SDS011;57956;53.362;-1.518;2022-12-07T03:19:45;0.50;;;0.00;;
70477;SDS011;57956;53.362;-1.518;2022-12-07T03:22:12;0.65;;;0.10;;
70477;SDS011;57956;53.362;-1.518;2022-12-07T03:27:11;0.98;;;0.10;;
70477;SDS011;57956;53.362;-1.518;2022-12-07T03:29:40;0.70;;;0.10;;
70477;SDS011;57956;53.362;-1.518;2022-12-07T03:37:12;0.83;;;0.10;;
70477;SDS011;57956;53.362;-1.518;2022-12-07T03:39:41;0.90;;;0.20;;
70477;SDS011;57956;53.362;-1.518;2022-12-07T03:42:09;0.73;;;0.10;;
70477;SDS011;57956;53.362;-1.518;2022-12-07T03:44:35;1.23;;;0.45;;
70477;SDS011;57956;53.362;-1.518;2022-12-07T03:52:24;0.68;;;0.10;;
70477;SDS011;57956;53.362;-1.518;2022-12-07T03:55:00;3.80;;;1.08;;
70477;SDS011;57956;53.362;-1.518;2022-12-07T03:57:27;0.70;;;0.10;;
70477;SDS011;57956;53.362;-1.518;2022-12-07T03:59:54;0.60;;;0.10;;
70477;SDS011;57956;53.362;-1.518;2022-12-07T04:02:20;1.80;;;0.10;;
70477;SDS011;57956;53.362;-1.518;2022-12-07T04:04:45;0.70;;;0.10;;
70477;SDS011;57956;53.362;-1.518;2022-12-07T04:07:11;0.70;;;0.10;;
70477;SDS011;57956;53.362;-1.518;2022-12-07T04:09:37;2.40;;;0.10;;
70477;SDS011;57956;53.362;-1.518;2022-12-07T04:12:03;3.33;;;0.30;;
70477;SDS011;57956;53.362;-1.518;2022-12-07T04:14:28;0.80;;;0.20;;
70477;SDS011;57956;53.362;-1.518;2022-12-07T04:16:55;1.47;;;0.20;;
70477;SDS011;57956;53.362;-1.518;2022-12-07T04:19:22;0.80;;;0.10;;
70477;SDS011;57956;53.362;-1.518;2022-12-07T04:21:48;0.82;;;0.10;;
70477;SDS011;57956;53.362;-1.518;2022-12-07T04:24:13;0.60;;;0.10;;
70477;SDS011;57956;53.362;-1.518;2022-12-07T04:26:39;1.50;;;0.20;;
70477;SDS011;57956;53.362;-1.518;2022-12-07T04:29:05;0.70;;;0.10;;
70477;SDS011;57956;53.362;-1.518;2022-12-07T04:31:30;2.40;;;0.40;;
70477;SDS011;57956;53.362;-1.518;2022-12-07T04:33:55;0.90;;;0.20;;
70477;SDS011;57956;53.362;-1.518;2022-12-07T04:36:20;0.87;;;0.10;;
70477;SDS011;57956;53.362;-1.518;2022-12-07T04:38:46;0.90;;;0.10;;
70477;SDS011;57956;53.362;-1.518;2022-12-07T04:41:11;0.67;;;0.10;;
70477;SDS011;57956;53.362;-1.518;2022-12-07T04:43:37;2.10;;;0.38;;
70477;SDS011;57956;53.362;-1.518;2022-12-07T04:46:02;0.90;;;0.20;;
70477;SDS011;57956;53.362;-1.518;2022-12-07T04:48:28;0.70;;;0.10;;
70477;SDS011;57956;53.362;-1.518;2022-12-07T04:50:53;0.80;;;0.10;;
70477;SDS011;57956;53.362;-1.518;2022-12-07T04:53:18;0.97;;;0.13;;
70477;SDS011;57956;53.362;-1.518;2022-12-07T04:55:44;0.90;;;0.10;;
70477;SDS011;57956;53.362;-1.518;2022-12-07T04:58:12;0.60;;;0.10;;
70477;SDS011;57956;53.362;-1.518;2022-12-07T05:00:37;0.60;;;0.10;;
70477;SDS011;57956;53.362;-1.518;2022-12-07T05:03:02;0.70;;;0.10;;
70477;SDS011;57956;53.362;-1.518;2022-12-07T05:05:28;0.73;;;0.10;;
70477;SDS011;57956;53.362;-1.518;2022-12-07T05:07:53;0.50;;;0.10;;
70477;SDS011;57956;53.362;-1.518;2022-12-07T05:10:18;0.85;;;0.10;;
70477;SDS011;57956;53.362;-1.518;2022-12-07T05:12:44;0.70;;;0.10;;
70477;SDS011;57956;53.362;-1.518;2022-12-07T05:15:10;0.70;;;0.10;;
70477;SDS011;57956;53.362;-1.518;2022-12-07T05:17:35;1.10;;;0.20;;
70477;SDS011;57956;53.362;-1.518;2022-12-07T05:20:01;2.00;;;0.20;;
70477;SDS011;57956;53.362;-1.518;2022-12-07T05:22:26;0.80;;;0.10;;
70477;SDS011;57956;53.362;-1.518;2022-12-07T05:24:53;2.25;;;0.30;;
70477;SDS011;57956;53.362;-1.518;2022-12-07T05:27:19;0.73;;;0.10;;
70477;SDS011;57956;53.362;-1.518;2022-12-07T05:29:45;0.73;;;0.07;;
70477;SDS011;57956;53.362;-1.518;2022-12-07T05:32:10;7.25;;;0.30;;
70477;SDS011;57956;53.362;-1.518;2022-12-07T05:34:35;0.70;;;0.10;;
70477;SDS011;57956;53.362;-1.518;2022-12-07T05:37:01;0.70;;;0.10;;
70477;SDS011;57956;53.362;-1.518;2022-12-07T05:39:26;2.53;;;0.50;;
70477;SDS011;57956;53.362;-1.518;2022-12-07T05:41:51;9.40;;;0.30;;
70477;SDS011;57956;53.362;-1.518;2022-12-07T05:44:35;1.20;;;0.38;;
70477;SDS011;57956;53.362;-1.518;2022-12-07T05:47:00;0.70;;;0.10;;
70477;SDS011;57956;53.362;-1.518;2022-12-07T05:49:26;0.60;;;0.10;;
70477;SDS011;57956;53.362;-1.518;2022-12-07T05:51:51;0.80;;;0.20;;
70477;SDS011;57956;53.362;-1.518;2022-12-07T05:54:17;1.07;;;0.20;;
70477;SDS011;57956;53.362;-1.518;2022-12-07T05:56:42;1.10;;;0.30;;
70477;SDS011;57956;53.362;-1.518;2022-12-07T05:59:08;0.90;;;0.15;;
70477;SDS011;57956;53.362;-1.518;2022-12-07T06:01:49;0.85;;;0.15;;
70477;SDS011;57956;53.362;-1.518;2022-12-07T06:04:14;0.60;;;0.10;;
70477;SDS011;57956;53.362;-1.518;2022-12-07T06:06:39;0.60;;;0.10;;
70477;SDS011;57956;53.362;-1.518;2022-12-07T06:09:05;0.60;;;0.03;;
70477;SDS011;57956;53.362;-1.518;2022-12-07T06:11:30;1.37;;;0.30;;
70477;SDS011;57956;53.362;-1.518;2022-12-07T06:14:14;0.83;;;0.10;;
70477;SDS011;57956;53.362;-1.518;2022-12-07T06:16:40;0.60;;;0.10;;
70477;SDS011;57956;53.362;-1.518;2022-12-07T06:19:06;0.70;;;0.10;;
70477;SDS011;57956;53.362;-1.518;2022-12-07T06:21:31;0.70;;;0.10;;
70477;SDS011;57956;53.362;-1.518;2022-12-07T06:23:56;0.60;;;0.10;;
70477;SDS011;57956;53.362;-1.518;2022-12-07T06:26:21;0.60;;;0.10;;
70477;SDS011;57956;53.362;-1.518;2022-12-07T06:28:47;0.60;;;0.10;;
70477;SDS011;57956;53.362;-1.518;2022-12-07T06:31:12;0.90;;;0.13;;
70477;SDS011;57956;53.362;-1.518;2022-12-07T06:33:37;0.60;;;0.10;;
70477;SDS011;57956;53.362;-1.518;2022-12-07T06:36:02;10.03;;;0.57;;
70477;SDS011;57956;53.362;-1.518;2022-12-07T06:38:28;0.60;;;0.10;;
70477;SDS011;57956;53.362;-1.518;2022-12-07T06:40:53;0.77;;;0.10;;
70477;SDS011;57956;53.362;-1.518;2022-12-07T06:43:18;0.60;;;0.10;;
70477;SDS011;57956;53.362;-1.518;2022-12-07T06:45:44;3.07;;;0.20;;
70477;SDS011;57956;53.362;-1.518;2022-12-07T06:48:09;1.27;;;0.10;;
70477;SDS011;57956;53.362;-1.518;2022-12-07T06:50:34;0.70;;;0.10;;
70477;SDS011;57956;53.362;-1.518;2022-12-07T06:53:00;0.80;;;0.10;;
70477;SDS011;57956;53.362;-1.518;2022-12-07T06:55:25;0.70;;;0.10;;
70477;SDS011;57956;53.362;-1.518;2022-12-07T06:57:51;0.63;;;0.10;;
70477;SDS011;57956;53.362;-1.518;2022-12-07T07:00:16;0.52;;;0.00;;
70477;SDS011;57956;53.362;-1.518;2022-12-07T07:02:41;4.67;;;0.60;;
70477;SDS011;57956;53.362;-1.518;2022-12-07T07:05:07;1.52;;;0.60;;
70477;SDS011;57956;53.362;-1.518;2022-12-07T07:07:32;3.57;;;0.20;;
70477;SDS011;57956;53.362;-1.518;2022-12-07T07:09:57;0.70;;;0.10;;
70477;SDS011;57956;53.362;-1.518;2022-12-07T07:12:22;2.73;;;0.20;;
70477;SDS011;57956;53.362;-1.518;2022-12-07T07:14:48;0.60;;;0.10;;
70477;SDS011;57956;53.362;-1.518;2022-12-07T07:17:13;1.03;;;0.13;;
70477;SDS011;57956;53.362;-1.518;2022-12-07T07:19:39;1.17;;;0.20;;
70477;SDS011;57956;53.362;-1.518;2022-12-07T07:22:04;0.70;;;0.10;;
70477;SDS011;57956;53.362;-1.518;2022-12-07T07:24:29;0.70;;;0.10;;
70477;SDS011;57956;53.362;-1.518;2022-12-07T07:26:55;0.90;;;0.13;;
70477;SDS011;57956;53.362;-1.518;2022-12-07T07:29:20;0.60;;;0.10;;
70477;SDS011;57956;53.362;-1.518;2022-12-07T07:31:45;1.20;;;0.30;;
70477;SDS011;57956;53.362;-1.518;2022-12-07T07:34:11;0.70;;;0.10;;
70477;SDS011;57956;53.362;-1.518;2022-12-07T07:36:36;0.80;;;0.10;;
70477;SDS011;57956;53.362;-1.518;2022-12-07T07:39:01;4.70;;;0.10;;
70477;SDS011;57956;53.362;-1.518;2022-12-07T07:41:26;0.60;;;0.10;;
70477;SDS011;57956;53.362;-1.518;2022-12-07T07:43:52;0.87;;;0.10;;
70477;SDS011;57956;53.362;-1.518;2022-12-07T07:46:17;1.27;;;0.20;;
70477;SDS011;57956;53.362;-1.518;2022-12-07T07:48:42;0.70;;;0.10;;
70477;SDS011;57956;53.362;-1.518;2022-12-07T07:51:08;1.97;;;0.13;;
70477;SDS011;57956;53.362;-1.518;2022-12-07T07:53:33;0.80;;;0.10;;
70477;SDS011;57956;53.362;-1.518;2022-12-07T07:56:01;1.00;;;0.20;;
70477;SDS011;57956;53.362;-1.518;2022-12-07T07:58:27;0.70;;;0.10;;
70477;SDS011;57956;53.362;-1.518;2022-12-07T08:00:52;0.60;;;0.10;;
70477;SDS011;57956;53.362;-1.518;2022-12-07T08:03:18;0.60;;;0.10;;
70477;SDS011;57956;53.362;-1.518;2022-12-07T08:05:43;0.75;;;0.10;;
70477;SDS011;57956;53.362;-1.518;2022-12-07T08:08:09;0.80;;;0.10;;
70477;SDS011;57956;53.362;-1.518;2022-12-07T08:10:34;0.70;;;0.10;;
70477;SDS011;57956;53.362;-1.518;2022-12-07T08:13:00;0.80;;;0.10;;
70477;SDS011;57956;53.362;-1.518;2022-12-07T08:15:39;2.22;;;0.50;;
70477;SDS011;57956;53.362;-1.518;2022-12-07T08:18:05;0.67;;;0.10;;
70477;SDS011;57956;53.362;-1.518;2022-12-07T08:20:30;0.80;;;0.10;;
70477;SDS011;57956;53.362;-1.518;2022-12-07T08:22:57;0.63;;;0.10;;
70477;SDS011;57956;53.362;-1.518;2022-12-07T08:25:22;0.98;;;0.10;;
70477;SDS011;57956;53.362;-1.518;2022-12-07T08:27:48;1.03;;;0.10;;
70477;SDS011;57956;53.362;-1.518;2022-12-07T08:30:13;1.83;;;0.53;;
70477;SDS011;57956;53.362;-1.518;2022-12-07T08:32:38;4.70;;;0.20;;
70477;SDS011;57956;53.362;-1.518;2022-12-07T08:35:04;2.97;;;0.20;;
70477;SDS011;57956;53.362;-1.518;2022-12-07T08:37:31;6.83;;;0.40;;
70477;SDS011;57956;53.362;-1.518;2022-12-07T08:39:56;0.70;;;0.10;;
70477;SDS011;57956;53.362;-1.518;2022-12-07T08:42:21;0.60;;;0.10;;
70477;SDS011;57956;53.362;-1.518;2022-12-07T08:44:48;0.60;;;0.10;;
70477;SDS011;57956;53.362;-1.518;2022-12-07T08:47:13;0.70;;;0.10;;
70477;SDS011;57956;53.362;-1.518;2022-12-07T08:49:40;0.68;;;0.10;;
70477;SDS011;57956;53.362;-1.518;2022-12-07T08:52:06;0.82;;;0.10;;
70477;SDS011;57956;53.362;-1.518;2022-12-07T08:54:32;0.90;;;0.10;;
70477;SDS011;57956;53.362;-1.518;2022-12-07T08:56:58;0.93;;;0.17;;
70477;SDS011;57956;53.362;-1.518;2022-12-07T08:59:24;2.80;;;0.20;;
70477;SDS011;57956;53.362;-1.518;2022-12-07T09:01:49;0.70;;;0.10;;
70477;SDS011;57956;53.362;-1.518;2022-12-07T09:04:14;0.80;;;0.10;;
70477;SDS011;57956;53.362;-1.518;2022-12-07T09:06:40;0.93;;;0.10;;
70477;SDS011;57956;53.362;-1.518;2022-12-07T09:09:06;1.33;;;0.23;;
70477;SDS011;57956;53.362;-1.518;2022-12-07T09:11:32;1.15;;;0.30;;
70477;SDS011;57956;53.362;-1.518;2022-12-07T09:13:57;1.00;;;0.10;;
70477;SDS011;57956;53.362;-1.518;2022-12-07T09:16:22;0.80;;;0.10;;
70477;SDS011;57956;53.362;-1.518;2022-12-07T09:18:48;1.00;;;0.20;;
70477;SDS011;57956;53.362;-1.518;2022-12-07T09:21:13;1.37;;;0.23;;
70477;SDS011;57956;53.362;-1.518;2022-12-07T09:23:39;2.33;;;0.20;;
70477;SDS011;57956;53.362;-1.518;2022-12-07T09:26:05;1.33;;;0.10;;
70477;SDS011;57956;53.362;-1.518;2022-12-07T09:28:31;1.13;;;0.30;;
70477;SDS011;57956;53.362;-1.518;2022-12-07T09:30:56;1.07;;;0.10;;
70477;SDS011;57956;53.362;-1.518;2022-12-07T09:33:21;1.60;;;0.47;;
70477;SDS011;57956;53.362;-1.518;2022-12-07T09:35:47;1.03;;;0.20;;
70477;SDS011;57956;53.362;-1.518;2022-12-07T09:38:13;2.63;;;0.43;;
70477;SDS011;57956;53.362;-1.518;2022-12-07T09:40:39;4.80;;;1.48;;
70477;SDS011;57956;53.362;-1.518;2022-12-07T09:43:04;3.43;;;1.20;;
70477;SDS011;57956;53.362;-1.518;2022-12-07T09:45:34;1.70;;;0.40;;
70477;SDS011;57956;53.362;-1.518;2022-12-07T09:48:00;1.80;;;0.50;;
70477;SDS011;57956;53.362;-1.518;2022-12-07T09:50:26;1.45;;;0.35;;
70477;SDS011;57956;53.362;-1.518;2022-12-07T09:52:52;1.33;;;0.20;;
70477;SDS011;57956;53.362;-1.518;2022-12-07T09:55:24;1.30;;;0.50;;
70477;SDS011;57956;53.362;-1.518;2022-12-07T09:57:51;1.50;;;0.40;;
70477;SDS011;57956;53.362;-1.518;2022-12-07T10:00:19;3.13;;;0.40;;
70477;SDS011;57956;53.362;-1.518;2022-12-07T10:05:22;2.00;;;0.52;;
70477;SDS011;57956;53.362;-1.518;2022-12-07T10:07:49;1.03;;;0.30;;
70477;SDS011;57956;53.362;-1.518;2022-12-07T10:10:16;2.08;;;0.65;;
70477;SDS011;57956;53.362;-1.518;2022-12-07T10:12:52;1.20;;;0.20;;
70477;SDS011;57956;53.362;-1.518;2022-12-07T10:15:17;3.97;;;0.82;;
70477;SDS011;57956;53.362;-1.518;2022-12-07T10:17:47;1.30;;;0.17;;
70477;SDS011;57956;53.362;-1.518;2022-12-07T10:22:44;2.63;;;0.40;;
70477;SDS011;57956;53.362;-1.518;2022-12-07T10:25:19;4.73;;;0.37;;
70477;SDS011;57956;53.362;-1.518;2022-12-07T10:27:56;1.70;;;0.25;;
70477;SDS011;57956;53.362;-1.518;2022-12-07T10:30:22;3.00;;;0.60;;
70477;SDS011;57956;53.362;-1.518;2022-12-07T10:32:47;2.90;;;0.97;;
70477;SDS011;57956;53.362;-1.518;2022-12-07T10:35:29;4.73;;;0.83;;
70477;SDS011;57956;53.362;-1.518;2022-12-07T10:37:55;3.35;;;1.40;;
70477;SDS011;57956;53.362;-1.518;2022-12-07T10:40:34;2.90;;;1.20;;
70477;SDS011;57956;53.362;-1.518;2022-12-07T10:43:20;3.88;;;1.10;;
70477;SDS011;57956;53.362;-1.518;2022-12-07T10:45:59;2.73;;;0.70;;
70477;SDS011;57956;53.362;-1.518;2022-12-07T10:48:34;2.22;;;0.45;;
70477;SDS011;57956;53.362;-1.518;2022-12-07T11:06:33;7.03;;;2.13;;
70477;SDS011;57956;53.362;-1.518;2022-12-07T11:16:27;1.53;;;0.47;;
70477;SDS011;57956;53.362;-1.518;2022-12-07T11:24:10;2.67;;;0.38;;
70477;SDS011;57956;53.362;-1.518;2022-12-07T11:32:19;2.00;;;0.40;;
70477;SDS011;57956;53.362;-1.518;2022-12-07T11:37:25;0.70;;;0.10;;
70477;SDS011;57956;53.362;-1.518;2022-12-07T11:39:59;11.43;;;0.28;;
70477;SDS011;57956;53.362;-1.518;2022-12-07T11:42:26;1.17;;;0.28;;
70477;SDS011;57956;53.362;-1.518;2022-12-07T11:47:52;1.30;;;0.10;;
70477;SDS011;57956;53.362;-1.518;2022-12-07T11:52:47;0.97;;;0.10;;
70477;SDS011;57956;53.362;-1.518;2022-12-07T11:58:10;0.73;;;0.10;;
70477;SDS011;57956;53.362;-1.518;2022-12-07T12:00:37;0.77;;;0.10;;
70477;SDS011;57956;53.362;-1.518;2022-12-07T12:03:07;0.90;;;0.10;;
70477;SDS011;57956;53.362;-1.518;2022-12-07T12:05:34;1.88;;;0.40;;
70477;SDS011;57956;53.362;-1.518;2022-12-07T12:08:05;1.20;;;0.20;;
70477;SDS011;57956;53.362;-1.518;2022-12-07T12:13:06;8.53;;;1.43;;
70477;SDS011;57956;53.362;-1.518;2022-12-07T12:20:46;6.13;;;1.50;;
70477;SDS011;57956;53.362;-1.518;2022-12-07T12:25:52;2.70;;;0.57;;
70477;SDS011;57956;53.362;-1.518;2022-12-07T12:30:46;3.42;;;1.42;;
70477;SDS011;57956;53.362;-1.518;2022-12-07T12:33:29;2.20;;;0.30;;
70477;SDS011;57956;53.362;-1.518;2022-12-07T12:42:17;1.07;;;0.20;;
70477;SDS011;57956;53.362;-1.518;2022-12-07T12:46:55;0.90;;;0.20;;
70477;SDS011;57956;53.362;-1.518;2022-12-07T12:59:25;0.90;;;0.10;;
70477;SDS011;57956;53.362;-1.518;2022-12-07T13:02:15;2.20;;;0.30;;
70477;SDS011;57956;53.362;-1.518;2022-12-07T13:04:48;0.70;;;0.10;;
70477;SDS011;57956;53.362;-1.518;2022-12-07T13:07:49;1.00;;;0.10;;
70477;SDS011;57956;53.362;-1.518;2022-12-07T13:09:59;0.63;;;0.10;;
70477;SDS011;57956;53.362;-1.518;2022-12-07T13:12:25;2.70;;;0.50;;
70477;SDS011;57956;53.362;-1.518;2022-12-07T13:14:57;1.43;;;0.30;;
70477;SDS011;57956;53.362;-1.518;2022-12-07T13:20:01;0.90;;;0.20;;
70477;SDS011;57956;53.362;-1.518;2022-12-07T13:27:32;1.13;;;0.23;;
70477;SDS011;57956;53.362;-1.518;2022-12-07T13:29:58;2.35;;;0.60;;
70477;SDS011;57956;53.362;-1.518;2022-12-07T13:32:28;4.07;;;0.40;;
70477;SDS011;57956;53.362;-1.518;2022-12-07T13:34:54;1.40;;;0.40;;
70477;SDS011;57956;53.362;-1.518;2022-12-07T13:42:27;2.20;;;0.15;;
70477;SDS011;57956;53.362;-1.518;2022-12-07T13:44:52;0.80;;;0.10;;
70477;SDS011;57956;53.362;-1.518;2022-12-07T13:47:30;1.27;;;0.20;;
70477;SDS011;57956;53.362;-1.518;2022-12-07T13:49:56;0.73;;;0.10;;
70477;SDS011;57956;53.362;-1.518;2022-12-07T13:52:29;0.60;;;0.10;;
70477;SDS011;57956;53.362;-1.518;2022-12-07T13:57:24;1.00;;;0.20;;
70477;SDS011;57956;53.362;-1.518;2022-12-07T13:59:50;0.90;;;0.10;;
70477;SDS011;57956;53.362;-1.518;2022-12-07T14:02:28;0.80;;;0.10;;
70477;SDS011;57956;53.362;-1.518;2022-12-07T14:07:56;4.20;;;0.47;;
70477;SDS011;57956;53.362;-1.518;2022-12-07T14:10:26;1.00;;;0.20;;
70477;SDS011;57956;53.362;-1.518;2022-12-07T14:12:52;1.70;;;0.22;;
70477;SDS011;57956;53.362;-1.518;2022-12-07T14:15:35;4.77;;;0.57;;
70477;SDS011;57956;53.362;-1.518;2022-12-07T14:18:02;6.47;;;0.22;;
70477;SDS011;57956;53.362;-1.518;2022-12-07T14:22:58;1.38;;;0.20;;
70477;SDS011;57956;53.362;-1.518;2022-12-07T14:25:24;1.00;;;0.10;;
70477;SDS011;57956;53.362;-1.518;2022-12-07T14:27:55;1.90;;;0.20;;
70477;SDS011;57956;53.362;-1.518;2022-12-07T14:30:21;0.98;;;0.22;;
70477;SDS011;57956;53.362;-1.518;2022-12-07T14:32:48;1.23;;;0.23;;
70477;SDS011;57956;53.362;-1.518;2022-12-07T14:35:16;2.17;;;0.13;;
70477;SDS011;57956;53.362;-1.518;2022-12-07T14:37:43;3.22;;;0.75;;
70477;SDS011;57956;53.362;-1.518;2022-12-07T14:40:11;1.70;;;0.25;;
70477;SDS011;57956;53.362;-1.518;2022-12-07T14:42:37;0.98;;;0.20;;
70477;SDS011;57956;53.362;-1.518;2022-12-07T14:45:03;3.47;;;0.60;;
70477;SDS011;57956;53.362;-1.518;2022-12-07T14:47:29;3.97;;;0.52;;
70477;SDS011;57956;53.362;-1.518;2022-12-07T14:49:54;2.43;;;0.40;;
70477;SDS011;57956;53.362;-1.518;2022-12-07T14:52:20;4.43;;;1.47;;
70477;SDS011;57956;53.362;-1.518;2022-12-07T14:54:46;1.90;;;0.68;;
70477;SDS011;57956;53.362;-1.518;2022-12-07T14:57:11;2.03;;;0.40;;
70477;SDS011;57956;53.362;-1.518;2022-12-07T14:59:37;2.20;;;0.47;;
70477;SDS011;57956;53.362;-1.518;2022-12-07T15:02:02;3.83;;;0.83;;
70477;SDS011;57956;53.362;-1.518;2022-12-07T15:04:27;2.40;;;1.00;;
70477;SDS011;57956;53.362;-1.518;2022-12-07T15:07:00;4.50;;;1.23;;
70477;SDS011;57956;53.362;-1.518;2022-12-07T15:09:25;2.60;;;0.82;;
70477;SDS011;57956;53.362;-1.518;2022-12-07T15:11:51;3.40;;;0.93;;
70477;SDS011;57956;53.362;-1.518;2022-12-07T15:14:16;3.00;;;1.00;;
70477;SDS011;57956;53.362;-1.518;2022-12-07T15:16:42;6.00;;;2.83;;
70477;SDS011;57956;53.362;-1.518;2022-12-07T15:19:17;3.35;;;1.15;;
70477;SDS011;57956;53.362;-1.518;2022-12-07T15:21:44;3.83;;;1.40;;
70477;SDS011;57956;53.362;-1.518;2022-12-07T15:24:10;5.18;;;1.45;;
70477;SDS011;57956;53.362;-1.518;2022-12-07T15:26:36;9.10;;;1.60;;
70477;SDS011;57956;53.362;-1.518;2022-12-07T15:29:01;3.57;;;0.80;;
70477;SDS011;57956;53.362;-1.518;2022-12-07T15:31:27;5.20;;;2.23;;
70477;SDS011;57956;53.362;-1.518;2022-12-07T15:33:52;3.00;;;0.73;;
70477;SDS011;57956;53.362;-1.518;2022-12-07T15:36:18;2.73;;;0.77;;
70477;SDS011;57956;53.362;-1.518;2022-12-07T15:38:45;6.70;;;2.30;;
70477;SDS011;57956;53.362;-1.518;2022-12-07T15:41:10;7.73;;;1.50;;
70477;SDS011;57956;53.362;-1.518;2022-12-07T15:43:36;8.33;;;1.23;;
70477;SDS011;57956;53.362;-1.518;2022-12-07T15:46:19;3.30;;;0.87;;
70477;SDS011;57956;53.362;-1.518;2022-12-07T15:48:45;4.87;;;1.53;;
70477;SDS011;57956;53.362;-1.518;2022-12-07T15:51:10;6.67;;;2.27;;
70477;SDS011;57956;53.362;-1.518;2022-12-07T15:53:35;2.77;;;1.27;;
70477;SDS011;57956;53.362;-1.518;2022-12-07T15:56:01;5.57;;;2.93;;
70477;SDS011;57956;53.362;-1.518;2022-12-07T15:58:30;5.85;;;1.30;;
70477;SDS011;57956;53.362;-1.518;2022-12-07T16:00:55;3.50;;;1.58;;
70477;SDS011;57956;53.362;-1.518;2022-12-07T16:03:21;4.60;;;1.67;;
70477;SDS011;57956;53.362;-1.518;2022-12-07T16:05:49;8.13;;;1.27;;
70477;SDS011;57956;53.362;-1.518;2022-12-07T16:08:15;6.75;;;2.33;;
70477;SDS011;57956;53.362;-1.518;2022-12-07T16:10:40;6.03;;;1.87;;
70477;SDS011;57956;53.362;-1.518;2022-12-07T16:13:08;6.57;;;2.50;;
70477;SDS011;57956;53.362;-1.518;2022-12-07T16:15:37;5.67;;;2.10;;
70477;SDS011;57956;53.362;-1.518;2022-12-07T16:18:02;5.32;;;1.98;;
70477;SDS011;57956;53.362;-1.518;2022-12-07T16:20:27;10.23;;;2.57;;
70477;SDS011;57956;53.362;-1.518;2022-12-07T16:22:53;5.83;;;1.93;;
70477;SDS011;57956;53.362;-1.518;2022-12-07T16:25:18;2.93;;;1.27;;
70477;SDS011;57956;53.362;-1.518;2022-12-07T16:27:45;6.03;;;2.28;;
70477;SDS011;57956;53.362;-1.518;2022-12-07T16:30:11;4.50;;;1.77;;
70477;SDS011;57956;53.362;-1.518;2022-12-07T16:32:36;7.53;;;2.90;;
70477;SDS011;57956;53.362;-1.518;2022-12-07T16:35:02;3.80;;;1.00;;
70477;SDS011;57956;53.362;-1.518;2022-12-07T16:37:27;3.65;;;1.33;;
70477;SDS011;57956;53.362;-1.518;2022-12-07T16:39:53;1.57;;;0.40;;
70477;SDS011;57956;53.362;-1.518;2022-12-07T16:42:18;1.47;;;0.47;;
70477;SDS011;57956;53.362;-1.518;2022-12-07T16:44:46;2.63;;;0.93;;
70477;SDS011;57956;53.362;-1.518;2022-12-07T16:47:12;2.70;;;0.70;;
70477;SDS011;57956;53.362;-1.518;2022-12-07T16:49:37;2.42;;;0.43;;
70477;SDS011;57956;53.362;-1.518;2022-12-07T16:52:03;1.17;;;0.30;;
70477;SDS011;57956;53.362;-1.518;2022-12-07T16:54:28;2.37;;;0.70;;
70477;SDS011;57956;53.362;-1.518;2022-12-07T16:56:57;2.38;;;0.68;;
70477;SDS011;57956;53.362;-1.518;2022-12-07T16:59:22;3.27;;;1.10;;